sensor_id;sensor_type;location;lat;lon;timestamp;pressure;altitude;pressure_sealevel;temperature;humidity
20079;BME280;10199;48.850;8.924;2022-09-27T00:00:22;95449.66;;;9.19;86.90
20079;BME280;10199;48.850;8.924;2022-09-27T00:02:50;95427.38;;;8.91;87.00
20079;BME280;10199;48.850;8.924;2022-09-27T00:05:18;95441.19;;;9.17;87.31
20079;BME280;10199;48.850;8.924;2022-09-27T00:07:45;95437.75;;;9.16;87.79
20079;BME280;10199;48.850;8.924;2022-09-27T00:10:13;95435.22;;;9.10;88.18
20079;BME280;10199;48.850;8.924;2022-09-27T00:12:43;95434.19;;;9.11;88.62
20079;BME280;10199;48.850;8.924;2022-09-27T00:15:10;95426.72;;;9.08;88.25
20079;BME280;10199;48.850;8.924;2022-09-27T00:17:38;95429.34;;;9.08;88.76
20079;BME280;10199;48.850;8.924;2022-09-27T00:20:07;95431.41;;;9.06;88.64
20079;BME280;10199;48.850;8.924;2022-09-27T00:22:36;95422.88;;;8.80;89.21
20079;BME280;10199;48.850;8.924;2022-09-27T00:25:04;95437.47;;;8.94;88.69
20079;BME280;10199;48.850;8.924;2022-09-27T00:27:33;95444.59;;;9.06;89.45
20079;BME280;10199;48.850;8.924;2022-09-27T00:30:02;95429.34;;;9.08;88.82
20079;BME280;10199;48.850;8.924;2022-09-27T00:32:30;95423.63;;;9.11;89.39
20079;BME280;10199;48.850;8.924;2022-09-27T00:34:58;95405.81;;;8.94;89.68
20079;BME280;10199;48.850;8.924;2022-09-27T00:37:25;95415.72;;;9.11;89.73
20079;BME280;10199;48.850;8.924;2022-09-27T00:39:53;95427.41;;;9.15;89.63
20079;BME280;10199;48.850;8.924;2022-09-27T00:42:21;95416.16;;;9.08;89.85
20079;BME280;10199;48.850;8.924;2022-09-27T00:45:11;95404.56;;;8.85;90.38
20079;BME280;10199;48.850;8.924;2022-09-27T00:47:48;95423.41;;;9.12;90.80
20079;BME280;10199;48.850;8.924;2022-09-27T00:50:23;95414.44;;;9.02;90.41
20079;BME280;10199;48.850;8.924;2022-09-27T00:52:59;95413.66;;;9.13;90.80
20079;BME280;10199;48.850;8.924;2022-09-27T00:55:30;95421.44;;;9.08;91.24
20079;BME280;10199;48.850;8.924;2022-09-27T00:58:00;95417.06;;;9.02;91.22
20079;BME280;10199;48.850;8.924;2022-09-27T01:00:31;95333.50;;;8.49;91.56
20079;BME280;10199;48.850;8.924;2022-09-27T01:03:02;95405.31;;;8.74;91.70
20079;BME280;10199;48.850;8.924;2022-09-27T01:05:34;95419.94;;;9.00;91.81
20079;BME280;10199;48.850;8.924;2022-09-27T01:08:01;95425.47;;;9.10;91.12
20079;BME280;10199;48.850;8.924;2022-09-27T01:10:35;95407.00;;;9.10;91.81
20079;BME280;10199;48.850;8.924;2022-09-27T01:13:12;95397.56;;;8.91;92.00
20079;BME280;10199;48.850;8.924;2022-09-27T01:15:52;95439.44;;;8.99;91.85
20079;BME280;10199;48.850;8.924;2022-09-27T01:18:30;95396.88;;;8.96;91.37
20079;BME280;10199;48.850;8.924;2022-09-27T01:24:25;95406.31;;;9.15;91.17
20079;BME280;10199;48.850;8.924;2022-09-27T01:27:15;95378.88;;;8.92;91.23
20079;BME280;10199;48.850;8.924;2022-09-27T01:29:59;95358.34;;;8.71;91.61
20079;BME280;10199;48.850;8.924;2022-09-27T01:32:34;95413.19;;;9.04;91.53
20079;BME280;10199;48.850;8.924;2022-09-27T01:35:06;95402.28;;;9.01;92.21
20079;BME280;10199;48.850;8.924;2022-09-27T01:37:44;95415.72;;;9.11;91.41
20079;BME280;10199;48.850;8.924;2022-09-27T01:40:23;95385.41;;;8.90;92.22
20079;BME280;10199;48.850;8.924;2022-09-27T01:43:23;95420.41;;;8.97;92.43
20079;BME280;10199;48.850;8.924;2022-09-27T01:45:57;95416.03;;;9.03;92.43
20079;BME280;10199;48.850;8.924;2022-09-27T01:48:49;95417.44;;;9.05;92.81
20079;BME280;10199;48.850;8.924;2022-09-27T01:51:24;95413.63;;;9.01;92.86
20079;BME280;10199;48.850;8.924;2022-09-27T01:53:57;95411.81;;;9.02;92.83
20079;BME280;10199;48.850;8.924;2022-09-27T01:56:53;95441.03;;;9.00;93.08
20079;BME280;10199;48.850;8.924;2022-09-27T01:59:33;95417.97;;;8.96;93.67
20079;BME280;10199;48.850;8.924;2022-09-27T02:02:27;95357.22;;;8.49;93.15
20079;BME280;10199;48.850;8.924;2022-09-27T02:05:19;95438.63;;;8.99;93.19
20079;BME280;10199;48.850;8.924;2022-09-27T02:07:57;95457.06;;;8.87;93.34
20079;BME280;10199;48.850;8.924;2022-09-27T02:10:30;95378.53;;;8.47;93.52
20079;BME280;10199;48.850;8.924;2022-09-27T02:13:17;95454.03;;;8.72;94.03
20079;BME280;10199;48.850;8.924;2022-09-27T02:15:56;95487.63;;;8.76;93.74
20079;BME280;10199;48.850;8.924;2022-09-27T02:18:41;95410.16;;;8.29;91.81
20079;BME280;10199;48.850;8.924;2022-09-27T02:21:18;95457.91;;;8.51;91.73
20079;BME280;10199;48.850;8.924;2022-09-27T02:23:50;95461.38;;;8.33;91.51
20079;BME280;10199;48.850;8.924;2022-09-27T02:26:23;95449.53;;;8.42;91.74
20079;BME280;10199;48.850;8.924;2022-09-27T02:28:58;95451.78;;;8.39;91.19
20079;BME280;10199;48.850;8.924;2022-09-27T02:31:37;95452.47;;;8.34;91.85
20079;BME280;10199;48.850;8.924;2022-09-27T02:34:08;95448.13;;;8.40;92.06
20079;BME280;10199;48.850;8.924;2022-09-27T02:36:39;95450.00;;;8.32;91.92
20079;BME280;10199;48.850;8.924;2022-09-27T02:39:07;95443.75;;;8.34;91.51
20079;BME280;10199;48.850;8.924;2022-09-27T02:41:35;95386.94;;;7.89;91.76
20079;BME280;10199;48.850;8.924;2022-09-27T02:44:06;95450.25;;;8.13;90.61
20079;BME280;10199;48.850;8.924;2022-09-27T02:46:53;95460.34;;;8.16;90.38
20079;BME280;10199;48.850;8.924;2022-09-27T02:49:39;95449.88;;;8.09;91.65
20079;BME280;10199;48.850;8.924;2022-09-27T02:52:41;95460.06;;;8.06;90.94
20079;BME280;10199;48.850;8.924;2022-09-27T02:55:17;95467.16;;;7.87;91.16
20079;BME280;10199;48.850;8.924;2022-09-27T02:58:01;95478.03;;;7.90;92.06
20079;BME280;10199;48.850;8.924;2022-09-27T03:00:59;95467.44;;;7.97;91.29
20079;BME280;10199;48.850;8.924;2022-09-27T03:04:03;95462.84;;;7.92;91.89
20079;BME280;10199;48.850;8.924;2022-09-27T03:06:36;95484.56;;;7.88;91.60
20079;BME280;10199;48.850;8.924;2022-09-27T03:09:17;95466.19;;;7.99;91.71
20079;BME280;10199;48.850;8.924;2022-09-27T03:11:45;95476.22;;;8.09;92.04
20079;BME280;10199;48.850;8.924;2022-09-27T03:14:14;95470.16;;;8.09;92.89
20079;BME280;10199;48.850;8.924;2022-09-27T03:16:56;95478.84;;;8.09;92.82
20079;BME280;10199;48.850;8.924;2022-09-27T03:19:47;95484.72;;;8.11;92.39
20079;BME280;10199;48.850;8.924;2022-09-27T03:22:50;95482.66;;;8.13;92.48
20079;BME280;10199;48.850;8.924;2022-09-27T03:25:19;95515.06;;;8.14;92.08
20079;BME280;10199;48.850;8.924;2022-09-27T03:27:47;95418.28;;;7.73;92.11
20079;BME280;10199;48.850;8.924;2022-09-27T03:30:15;95494.22;;;8.12;92.56
20079;BME280;10199;48.850;8.924;2022-09-27T03:32:44;95480.97;;;8.01;92.59
20079;BME280;10199;48.850;8.924;2022-09-27T03:35:30;95489.97;;;8.11;91.97
20079;BME280;10199;48.850;8.924;2022-09-27T03:37:58;95488.81;;;8.25;91.52
20079;BME280;10199;48.850;8.924;2022-09-27T03:40:27;95489.03;;;8.24;91.57
20079;BME280;10199;48.850;8.924;2022-09-27T03:42:55;95489.81;;;8.24;91.32
20079;BME280;10199;48.850;8.924;2022-09-27T03:45:24;95495.91;;;8.25;91.08
20079;BME280;10199;48.850;8.924;2022-09-27T03:47:52;95500.34;;;8.24;91.93
20079;BME280;10199;48.850;8.924;2022-09-27T03:50:20;95475.78;;;8.12;91.80
20079;BME280;10199;48.850;8.924;2022-09-27T03:52:48;95504.00;;;8.23;91.58
20079;BME280;10199;48.850;8.924;2022-09-27T03:55:16;95466.41;;;7.98;91.64
20079;BME280;10199;48.850;8.924;2022-09-27T03:57:45;95503.22;;;8.23;91.37
20079;BME280;10199;48.850;8.924;2022-09-27T04:00:15;95465.97;;;8.01;92.49
20079;BME280;10199;48.850;8.924;2022-09-27T04:02:43;95500.34;;;8.24;91.82
20079;BME280;10199;48.850;8.924;2022-09-27T04:05:24;95502.19;;;8.24;91.96
20079;BME280;10199;48.850;8.924;2022-09-27T04:07:56;95482.28;;;8.10;91.36
20079;BME280;10199;48.850;8.924;2022-09-27T04:10:24;95481.78;;;8.01;91.69
20079;BME280;10199;48.850;8.924;2022-09-27T04:12:53;95515.44;;;8.17;91.66
20079;BME280;10199;48.850;8.924;2022-09-27T04:15:23;95466.56;;;7.85;91.19
20079;BME280;10199;48.850;8.924;2022-09-27T04:18:11;95514.09;;;8.08;91.29
20079;BME280;10199;48.850;8.924;2022-09-27T04:20:48;95522.53;;;8.17;91.65
20079;BME280;10199;48.850;8.924;2022-09-27T04:23:17;95512.34;;;8.20;90.91
20079;BME280;10199;48.850;8.924;2022-09-27T04:25:50;95519.88;;;8.17;90.86
20079;BME280;10199;48.850;8.924;2022-09-27T04:28:40;95524.34;;;8.16;90.73
20079;BME280;10199;48.850;8.924;2022-09-27T04:31:09;95515.13;;;8.25;91.10
20079;BME280;10199;48.850;8.924;2022-09-27T04:33:50;95511.84;;;8.12;90.75
20079;BME280;10199;48.850;8.924;2022-09-27T04:36:32;95497.50;;;8.08;91.14
20079;BME280;10199;48.850;8.924;2022-09-27T04:39:09;95526.75;;;8.18;91.60
20079;BME280;10199;48.850;8.924;2022-09-27T04:41:40;95531.38;;;8.04;91.95
20079;BME280;10199;48.850;8.924;2022-09-27T04:44:10;95528.88;;;8.09;92.46
20079;BME280;10199;48.850;8.924;2022-09-27T04:46:40;95526.25;;;8.09;91.69
20079;BME280;10199;48.850;8.924;2022-09-27T04:49:09;95541.19;;;8.15;91.82
20079;BME280;10199;48.850;8.924;2022-09-27T04:51:37;95545.84;;;8.13;91.57
20079;BME280;10199;48.850;8.924;2022-09-27T04:54:05;95581.09;;;8.12;91.85
20079;BME280;10199;48.850;8.924;2022-09-27T04:56:45;95481.00;;;7.76;92.16
20079;BME280;10199;48.850;8.924;2022-09-27T04:59:15;95540.44;;;8.08;91.81
20079;BME280;10199;48.850;8.924;2022-09-27T05:01:43;95542.41;;;8.13;91.85
20079;BME280;10199;48.850;8.924;2022-09-27T05:04:37;95557.13;;;8.20;91.39
20079;BME280;10199;48.850;8.924;2022-09-27T05:07:07;95556.59;;;8.12;92.06
20079;BME280;10199;48.850;8.924;2022-09-27T05:09:41;95566.84;;;8.20;91.92
20079;BME280;10199;48.850;8.924;2022-09-27T05:12:09;95467.50;;;7.47;92.20
20079;BME280;10199;48.850;8.924;2022-09-27T05:15:00;95575.53;;;8.02;92.61
20079;BME280;10199;48.850;8.924;2022-09-27T05:17:49;95576.19;;;7.97;92.95
20079;BME280;10199;48.850;8.924;2022-09-27T05:20:36;95583.28;;;7.97;93.44
20079;BME280;10199;48.850;8.924;2022-09-27T05:23:13;95589.78;;;7.94;92.84
20079;BME280;10199;48.850;8.924;2022-09-27T05:25:41;95579.03;;;7.96;92.99
20079;BME280;10199;48.850;8.924;2022-09-27T05:28:09;95569.59;;;7.88;92.22
20079;BME280;10199;48.850;8.924;2022-09-27T05:30:38;95514.84;;;7.47;92.42
20079;BME280;10199;48.850;8.924;2022-09-27T05:33:11;95589.84;;;7.88;92.76
20079;BME280;10199;48.850;8.924;2022-09-27T05:35:42;95611.75;;;7.82;92.67
20079;BME280;10199;48.850;8.924;2022-09-27T05:38:13;95604.00;;;7.87;92.87
20079;BME280;10199;48.850;8.924;2022-09-27T05:40:45;95596.72;;;7.89;92.25
20079;BME280;10199;48.850;8.924;2022-09-27T05:43:16;95604.78;;;7.94;92.51
20079;BME280;10199;48.850;8.924;2022-09-27T05:45:45;95631.53;;;7.91;92.30
20079;BME280;10199;48.850;8.924;2022-09-27T05:48:16;95603.31;;;7.98;92.32
20079;BME280;10199;48.850;8.924;2022-09-27T05:50:59;95608.03;;;7.89;92.92
20079;BME280;10199;48.850;8.924;2022-09-27T05:53:28;95603.97;;;7.93;92.26
20079;BME280;10199;48.850;8.924;2022-09-27T05:56:00;95595.97;;;7.82;92.80
20079;BME280;10199;48.850;8.924;2022-09-27T05:58:37;95537.84;;;7.27;92.44
20079;BME280;10199;48.850;8.924;2022-09-27T06:01:14;95629.56;;;7.80;92.94
20079;BME280;10199;48.850;8.924;2022-09-27T06:04:11;95613.75;;;7.80;92.61
20079;BME280;10199;48.850;8.924;2022-09-27T06:06:47;95634.44;;;7.76;92.14
20079;BME280;10199;48.850;8.924;2022-09-27T06:09:16;95643.34;;;7.75;92.02
20079;BME280;10199;48.850;8.924;2022-09-27T06:11:46;95629.53;;;7.55;92.41
20079;BME280;10199;48.850;8.924;2022-09-27T06:14:15;95657.19;;;7.64;91.99
20079;BME280;10199;48.850;8.924;2022-09-27T06:17:07;95645.59;;;7.72;92.11
20079;BME280;10199;48.850;8.924;2022-09-27T06:19:39;95652.63;;;7.84;92.20
20079;BME280;10199;48.850;8.924;2022-09-27T06:22:07;95653.88;;;7.82;91.42
20079;BME280;10199;48.850;8.924;2022-09-27T06:24:42;95660.69;;;7.89;91.84
20079;BME280;10199;48.850;8.924;2022-09-27T06:27:17;95655.44;;;7.89;91.56
20079;BME280;10199;48.850;8.924;2022-09-27T06:29:52;95660.75;;;7.83;91.35
20079;BME280;10199;48.850;8.924;2022-09-27T06:32:37;95662.78;;;7.74;91.99
20079;BME280;10199;48.850;8.924;2022-09-27T06:35:37;95666.69;;;7.65;91.13
20079;BME280;10199;48.850;8.924;2022-09-27T06:38:09;95664.66;;;7.67;91.63
20079;BME280;10199;48.850;8.924;2022-09-27T06:40:44;95671.06;;;7.46;90.58
20079;BME280;10199;48.850;8.924;2022-09-27T06:43:29;95674.16;;;7.68;91.34
20079;BME280;10199;48.850;8.924;2022-09-27T06:46:17;95647.72;;;7.56;90.76
20079;BME280;10199;48.850;8.924;2022-09-27T06:49:15;95675.22;;;7.60;91.31
20079;BME280;10199;48.850;8.924;2022-09-27T06:51:43;95674.63;;;7.58;91.65
20079;BME280;10199;48.850;8.924;2022-09-27T06:54:11;95659.72;;;7.46;91.19
20079;BME280;10199;48.850;8.924;2022-09-27T06:56:38;95679.47;;;7.61;91.43
20079;BME280;10199;48.850;8.924;2022-09-27T06:59:06;95680.66;;;7.65;91.15
20079;BME280;10199;48.850;8.924;2022-09-27T07:02:17;95682.69;;;7.63;91.67
20079;BME280;10199;48.850;8.924;2022-09-27T07:05:08;95680.25;;;7.68;91.52
20079;BME280;10199;48.850;8.924;2022-09-27T07:07:42;95596.22;;;7.11;91.37
20079;BME280;10199;48.850;8.924;2022-09-27T07:10:10;95699.84;;;7.73;91.67
20079;BME280;10199;48.850;8.924;2022-09-27T07:12:38;95698.47;;;7.63;92.20
20079;BME280;10199;48.850;8.924;2022-09-27T07:15:09;95638.25;;;7.17;91.97
20079;BME280;10199;48.850;8.924;2022-09-27T07:17:37;95715.88;;;7.64;91.72
20079;BME280;10199;48.850;8.924;2022-09-27T07:20:05;95686.72;;;7.28;91.88
20079;BME280;10199;48.850;8.924;2022-09-27T07:22:39;95717.03;;;7.75;91.21
20079;BME280;10199;48.850;8.924;2022-09-27T07:25:09;95603.31;;;7.03;92.54
20079;BME280;10199;48.850;8.924;2022-09-27T07:27:37;95728.16;;;7.77;91.76
20079;BME280;10199;48.850;8.924;2022-09-27T07:30:09;95726.63;;;8.01;91.42
20079;BME280;10199;48.850;8.924;2022-09-27T07:32:37;95712.94;;;8.17;91.20
20079;BME280;10199;48.850;8.924;2022-09-27T07:35:09;95680.47;;;7.98;89.83
20079;BME280;10199;48.850;8.924;2022-09-27T07:37:38;95660.25;;;8.17;89.94
20079;BME280;10199;48.850;8.924;2022-09-27T07:40:08;95728.94;;;8.72;88.44
20079;BME280;10199;48.850;8.924;2022-09-27T07:42:36;95736.88;;;9.09;88.17
20079;BME280;10199;48.850;8.924;2022-09-27T07:45:05;95638.69;;;9.25;85.91
20079;BME280;10199;48.850;8.924;2022-09-27T07:48:03;95741.56;;;10.63;83.44
20079;BME280;10199;48.850;8.924;2022-09-27T07:51:03;95748.53;;;9.74;84.53
20079;BME280;10199;48.850;8.924;2022-09-27T07:53:41;95677.41;;;8.76;85.37
20079;BME280;10199;48.850;8.924;2022-09-27T07:56:27;95741.88;;;8.99;86.27
20079;BME280;10199;48.850;8.924;2022-09-27T07:58:56;95721.34;;;8.82;87.21
20079;BME280;10199;48.850;8.924;2022-09-27T08:01:24;95753.97;;;9.06;86.31
20079;BME280;10199;48.850;8.924;2022-09-27T08:03:52;95765.84;;;9.15;85.75
20079;BME280;10199;48.850;8.924;2022-09-27T08:06:20;95774.41;;;9.84;84.60
20079;BME280;10199;48.850;8.924;2022-09-27T08:08:49;95700.38;;;9.42;83.69
20079;BME280;10199;48.850;8.924;2022-09-27T08:11:17;95770.28;;;9.88;85.20
20079;BME280;10199;48.850;8.924;2022-09-27T08:13:48;95779.97;;;10.54;82.00
20079;BME280;10199;48.850;8.924;2022-09-27T08:16:20;95780.44;;;10.86;81.15
20079;BME280;10199;48.850;8.924;2022-09-27T08:19:07;95806.00;;;11.51;79.21
20079;BME280;10199;48.850;8.924;2022-09-27T08:21:47;95788.72;;;10.90;80.12
20079;BME280;10199;48.850;8.924;2022-09-27T08:24:21;95788.09;;;9.93;81.65
20079;BME280;10199;48.850;8.924;2022-09-27T08:27:02;95793.47;;;10.16;83.24
20079;BME280;10199;48.850;8.924;2022-09-27T08:29:45;95782.16;;;9.97;82.89
20079;BME280;10199;48.850;8.924;2022-09-27T08:32:15;95796.47;;;10.19;82.86
20079;BME280;10199;48.850;8.924;2022-09-27T08:34:46;95819.16;;;9.79;83.50
20079;BME280;10199;48.850;8.924;2022-09-27T08:37:13;95799.19;;;9.46;83.94
20079;BME280;10199;48.850;8.924;2022-09-27T08:39:43;95730.88;;;8.83;83.87
20079;BME280;10199;48.850;8.924;2022-09-27T08:42:27;95794.78;;;9.22;83.57
20079;BME280;10199;48.850;8.924;2022-09-27T08:45:02;95800.41;;;9.07;84.40
20079;BME280;10199;48.850;8.924;2022-09-27T08:47:36;95790.09;;;9.24;85.03
20079;BME280;10199;48.850;8.924;2022-09-27T08:50:17;95832.25;;;9.31;84.52
20079;BME280;10199;48.850;8.924;2022-09-27T08:52:51;95835.69;;;9.31;84.67
20079;BME280;10199;48.850;8.924;2022-09-27T08:55:26;95826.41;;;9.04;84.73
20079;BME280;10199;48.850;8.924;2022-09-27T08:57:57;95806.56;;;9.01;83.49
20079;BME280;10199;48.850;8.924;2022-09-27T09:00:28;95798.91;;;8.93;83.64
20079;BME280;10199;48.850;8.924;2022-09-27T09:02:56;95788.25;;;9.06;83.77
20079;BME280;10199;48.850;8.924;2022-09-27T09:05:28;95819.63;;;8.89;84.47
20079;BME280;10199;48.850;8.924;2022-09-27T09:08:12;95777.69;;;9.06;82.78
20079;BME280;10199;48.850;8.924;2022-09-27T09:10:51;95804.91;;;9.43;81.96
20079;BME280;10199;48.850;8.924;2022-09-27T09:16:33;95800.53;;;10.52;79.30
20079;BME280;10199;48.850;8.924;2022-09-27T09:19:18;95798.81;;;11.86;75.64
20079;BME280;10199;48.850;8.924;2022-09-27T09:22:05;95797.94;;;12.37;74.77
20079;BME280;10199;48.850;8.924;2022-09-27T09:24:50;95796.75;;;12.45;71.32
20079;BME280;10199;48.850;8.924;2022-09-27T09:27:30;95796.38;;;12.25;72.97
20079;BME280;10199;48.850;8.924;2022-09-27T09:30:18;95801.50;;;12.60;70.98
20079;BME280;10199;48.850;8.924;2022-09-27T09:33:14;95796.16;;;13.05;70.25
20079;BME280;10199;48.850;8.924;2022-09-27T09:35:47;95791.06;;;12.25;70.44
20079;BME280;10199;48.850;8.924;2022-09-27T09:38:21;95786.88;;;12.57;70.52
20079;BME280;10199;48.850;8.924;2022-09-27T09:40:56;95814.78;;;13.44;67.71
20079;BME280;10199;48.850;8.924;2022-09-27T09:43:30;95780.38;;;13.32;70.38
20079;BME280;10199;48.850;8.924;2022-09-27T09:46:06;95782.91;;;12.43;70.57
20079;BME280;10199;48.850;8.924;2022-09-27T09:48:39;95787.09;;;12.39;71.08
20079;BME280;10199;48.850;8.924;2022-09-27T09:51:14;95777.91;;;12.30;70.80
20079;BME280;10199;48.850;8.924;2022-09-27T09:53:50;95770.47;;;11.75;69.57
20079;BME280;10199;48.850;8.924;2022-09-27T09:56:27;95773.47;;;11.78;70.89
20079;BME280;10199;48.850;8.924;2022-09-27T09:59:01;95706.50;;;11.55;69.39
20079;BME280;10199;48.850;8.924;2022-09-27T10:01:39;95778.56;;;11.57;71.95
20079;BME280;10199;48.850;8.924;2022-09-27T10:04:14;95782.03;;;12.37;72.69
20079;BME280;10199;48.850;8.924;2022-09-27T10:06:42;95762.22;;;12.00;70.70
20079;BME280;10199;48.850;8.924;2022-09-27T10:09:12;95737.53;;;11.83;71.58
20079;BME280;10199;48.850;8.924;2022-09-27T10:11:49;95771.19;;;11.59;69.79
20079;BME280;10199;48.850;8.924;2022-09-27T10:14:26;95755.56;;;11.45;70.49
20079;BME280;10199;48.850;8.924;2022-09-27T10:17:02;95778.84;;;11.43;70.34
20079;BME280;10199;48.850;8.924;2022-09-27T10:19:33;95773.91;;;11.00;70.86
20079;BME280;10199;48.850;8.924;2022-09-27T10:22:13;95813.69;;;10.82;71.94
20079;BME280;10199;48.850;8.924;2022-09-27T10:24:57;95797.91;;;10.75;72.20
20079;BME280;10199;48.850;8.924;2022-09-27T10:27:49;95776.66;;;11.40;72.60
20079;BME280;10199;48.850;8.924;2022-09-27T10:30:27;95771.72;;;11.32;71.65
20079;BME280;10199;48.850;8.924;2022-09-27T10:33:02;95730.97;;;11.10;71.08
20079;BME280;10199;48.850;8.924;2022-09-27T10:35:41;95745.72;;;11.29;71.58
20079;BME280;10199;48.850;8.924;2022-09-27T10:38:23;95752.91;;;11.57;71.67
20079;BME280;10199;48.850;8.924;2022-09-27T10:41:15;95765.16;;;11.35;72.15
20079;BME280;10199;48.850;8.924;2022-09-27T10:43:43;95730.31;;;10.79;72.66
20079;BME280;10199;48.850;8.924;2022-09-27T10:46:25;95757.09;;;10.60;74.62
20079;BME280;10199;48.850;8.924;2022-09-27T10:49:09;95762.84;;;10.57;77.64
20079;BME280;10199;48.850;8.924;2022-09-27T10:51:42;95728.56;;;10.08;79.39
20079;BME280;10199;48.850;8.924;2022-09-27T10:54:20;95766.50;;;10.44;78.87
20079;BME280;10199;48.850;8.924;2022-09-27T10:56:54;95746.38;;;10.43;79.47
20079;BME280;10199;48.850;8.924;2022-09-27T10:59:24;95738.69;;;10.41;79.09
20079;BME280;10199;48.850;8.924;2022-09-27T11:01:55;95733.47;;;10.35;77.87
20079;BME280;10199;48.850;8.924;2022-09-27T11:04:35;95747.44;;;10.65;79.00
20079;BME280;10199;48.850;8.924;2022-09-27T11:07:11;95743.53;;;10.68;78.23
20079;BME280;10199;48.850;8.924;2022-09-27T11:09:46;95754.13;;;10.79;78.34
20079;BME280;10199;48.850;8.924;2022-09-27T11:12:16;95729.16;;;10.52;76.27
20079;BME280;10199;48.850;8.924;2022-09-27T11:14:53;95716.72;;;10.41;75.32
20079;BME280;10199;48.850;8.924;2022-09-27T11:17:31;95734.56;;;10.57;77.93
20079;BME280;10199;48.850;8.924;2022-09-27T11:20:15;95738.69;;;10.41;77.79
20079;BME280;10199;48.850;8.924;2022-09-27T11:23:21;95740.41;;;10.47;78.49
20079;BME280;10199;48.850;8.924;2022-09-27T11:28:49;95748.84;;;9.96;84.46
20079;BME280;10199;48.850;8.924;2022-09-27T11:31:40;95769.59;;;9.63;83.67
20079;BME280;10199;48.850;8.924;2022-09-27T11:34:19;95787.59;;;9.29;85.49
20079;BME280;10199;48.850;8.924;2022-09-27T11:37:07;95813.19;;;8.22;87.33
20079;BME280;10199;48.850;8.924;2022-09-27T11:39:48;95824.16;;;7.68;87.93
20079;BME280;10199;48.850;8.924;2022-09-27T11:42:42;95800.59;;;7.35;87.10
20079;BME280;10199;48.850;8.924;2022-09-27T11:45:24;95784.44;;;7.25;88.58
20079;BME280;10199;48.850;8.924;2022-09-27T11:48:27;95708.88;;;6.87;89.21
20079;BME280;10199;48.850;8.924;2022-09-27T11:51:07;95788.31;;;7.80;87.75
20079;BME280;10199;48.850;8.924;2022-09-27T11:53:50;95785.84;;;7.79;88.36
20079;BME280;10199;48.850;8.924;2022-09-27T11:56:31;95775.19;;;8.05;89.34
20079;BME280;10199;48.850;8.924;2022-09-27T11:59:19;95770.38;;;8.34;88.04
20079;BME280;10199;48.850;8.924;2022-09-27T12:01:55;95774.44;;;8.29;88.34
20079;BME280;10199;48.850;8.924;2022-09-27T12:04:40;95771.91;;;8.16;88.90
20079;BME280;10199;48.850;8.924;2022-09-27T12:07:19;95766.63;;;7.85;89.62
20079;BME280;10199;48.850;8.924;2022-09-27T12:09:52;95755.72;;;7.75;90.11
20079;BME280;10199;48.850;8.924;2022-09-27T12:12:23;95786.66;;;7.79;89.82
20079;BME280;10199;48.850;8.924;2022-09-27T12:14:55;95773.50;;;7.86;89.84
20079;BME280;10199;48.850;8.924;2022-09-27T12:17:29;95793.56;;;7.80;90.53
20079;BME280;10199;48.850;8.924;2022-09-27T12:20:03;95761.91;;;7.93;90.11
20079;BME280;10199;48.850;8.924;2022-09-27T12:22:49;95793.97;;;7.84;89.36
20079;BME280;10199;48.850;8.924;2022-09-27T12:25:53;95768.56;;;7.96;90.61
20079;BME280;10199;48.850;8.924;2022-09-27T12:28:31;95743.44;;;7.62;89.61
20079;BME280;10199;48.850;8.924;2022-09-27T12:31:05;95758.34;;;7.81;90.74
20079;BME280;10199;48.850;8.924;2022-09-27T12:34:00;95751.00;;;7.90;90.64
20079;BME280;10199;48.850;8.924;2022-09-27T12:36:32;95722.91;;;7.77;90.87
20079;BME280;10199;48.850;8.924;2022-09-27T12:39:09;95752.66;;;8.16;90.43
20079;BME280;10199;48.850;8.924;2022-09-27T12:41:45;95731.56;;;7.91;89.82
20079;BME280;10199;48.850;8.924;2022-09-27T12:44:26;95763.13;;;7.91;90.71
20079;BME280;10199;48.850;8.924;2022-09-27T12:47:02;95733.41;;;8.15;89.08
20079;BME280;10199;48.850;8.924;2022-09-27T12:49:40;95738.59;;;8.28;89.72
20079;BME280;10199;48.850;8.924;2022-09-27T12:52:18;95722.53;;;8.05;91.68
20079;BME280;10199;48.850;8.924;2022-09-27T12:55:04;95682.63;;;7.77;90.95
20079;BME280;10199;48.850;8.924;2022-09-27T12:57:48;95723.50;;;7.79;90.58
20079;BME280;10199;48.850;8.924;2022-09-27T13:00:23;95755.44;;;7.89;90.70
20079;BME280;10199;48.850;8.924;2022-09-27T13:03:04;95746.44;;;8.04;90.95
20079;BME280;10199;48.850;8.924;2022-09-27T13:06:18;95748.03;;;8.11;91.18
20079;BME280;10199;48.850;8.924;2022-09-27T13:09:24;95730.50;;;8.23;90.37
20079;BME280;10199;48.850;8.924;2022-09-27T13:12:01;95734.97;;;8.23;90.32
20079;BME280;10199;48.850;8.924;2022-09-27T13:14:34;95715.56;;;8.17;90.09
20079;BME280;10199;48.850;8.924;2022-09-27T13:17:32;95733.69;;;8.32;90.84
20079;BME280;10199;48.850;8.924;2022-09-27T13:20:31;95684.06;;;8.04;90.14
20079;BME280;10199;48.850;8.924;2022-09-27T13:23:03;95733.19;;;8.48;90.06
20079;BME280;10199;48.850;8.924;2022-09-27T13:25:49;95726.91;;;8.74;90.33
20079;BME280;10199;48.850;8.924;2022-09-27T13:28:57;95726.31;;;8.47;90.62
20079;BME280;10199;48.850;8.924;2022-09-27T13:35:17;95771.41;;;8.26;91.09
20079;BME280;10199;48.850;8.924;2022-09-27T13:37:53;95726.91;;;8.18;90.52
20079;BME280;10199;48.850;8.924;2022-09-27T13:40:32;95730.44;;;8.37;90.62
20079;BME280;10199;48.850;8.924;2022-09-27T13:43:37;95724.81;;;8.26;90.42
20079;BME280;10199;48.850;8.924;2022-09-27T13:46:25;95719.56;;;8.26;91.85
20079;BME280;10199;48.850;8.924;2022-09-27T13:48:57;95680.84;;;7.71;91.47
20079;BME280;10199;48.850;8.924;2022-09-27T13:51:44;95737.59;;;7.98;90.57
20079;BME280;10199;48.850;8.924;2022-09-27T13:54:35;95728.25;;;8.27;91.33
20079;BME280;10199;48.850;8.924;2022-09-27T13:57:06;95689.22;;;7.92;89.74
20079;BME280;10199;48.850;8.924;2022-09-27T13:59:55;95703.25;;;8.43;91.25
20079;BME280;10199;48.850;8.924;2022-09-27T14:03:01;95695.53;;;8.16;90.77
20079;BME280;10199;48.850;8.924;2022-09-27T14:05:34;95714.88;;;8.28;90.97
20079;BME280;10199;48.850;8.924;2022-09-27T14:08:06;95703.38;;;8.23;92.08
20079;BME280;10199;48.850;8.924;2022-09-27T14:10:42;95738.97;;;8.32;91.30
20079;BME280;10199;48.850;8.924;2022-09-27T14:13:15;95722.59;;;8.55;92.16
20079;BME280;10199;48.850;8.924;2022-09-27T14:15:58;95663.94;;;8.41;91.75